createdAt,value
2018-01-13T00:01:44.808Z,14.38
2018-01-13T00:04:13.603Z,15.15
2018-01-13T00:06:41.654Z,18.42
2018-01-13T00:09:10.732Z,15.38
2018-01-13T00:11:38.769Z,23.25
2018-01-13T00:14:06.815Z,13.98
2018-01-13T00:16:34.849Z,14.43
2018-01-13T00:19:02.909Z,14.25
2018-01-13T00:21:30.960Z,22.35
2018-01-13T00:23:59.001Z,13.82
2018-01-13T00:26:27.044Z,18.65
2018-01-13T00:28:55.072Z,18.83
2018-01-13T00:31:23.937Z,17.67
2018-01-13T00:33:52.021Z,14.65
2018-01-13T00:36:20.057Z,20.08
2018-01-13T00:38:48.884Z,16.98
2018-01-13T00:41:16.917Z,14.73
2018-01-13T00:43:44.968Z,13.27
2018-01-13T00:46:13.025Z,18.25
2018-01-13T00:48:41.067Z,15.43
2018-01-13T00:51:09.125Z,16.85
2018-01-13T00:53:37.170Z,12.98
2018-01-13T00:56:05.240Z,15.23
2018-01-13T00:58:34.065Z,18.62
2018-01-13T01:01:02.109Z,15.40
2018-01-13T01:03:30.172Z,15.70
2018-01-13T01:05:58.204Z,17.33
2018-01-13T01:08:26.249Z,18.25
2018-01-13T01:10:54.308Z,14.80
2018-01-13T01:13:22.332Z,12.68
2018-01-13T01:15:50.396Z,12.23
2018-01-13T01:18:18.456Z,18.05
2018-01-13T01:20:46.493Z,15.93
2018-01-13T01:23:15.316Z,20.60
2018-01-13T01:25:43.352Z,15.27
2018-01-13T01:28:11.425Z,23.25
2018-01-13T01:30:39.480Z,18.12
2018-01-13T01:33:07.513Z,21.73
2018-01-13T01:35:35.570Z,18.48
2018-01-13T01:38:03.616Z,20.00
2018-01-13T01:40:31.664Z,24.52
2018-01-13T01:42:59.730Z,16.62
2018-01-13T01:45:27.768Z,17.35
2018-01-13T01:47:55.832Z,13.13
2018-01-13T01:50:23.858Z,16.87
2018-01-13T01:52:51.916Z,14.85
2018-01-13T01:55:19.949Z,15.52
2018-01-13T01:57:48.147Z,19.45
2018-01-13T02:00:16.131Z,20.27
2018-01-13T02:02:44.907Z,17.00
2018-01-13T02:05:12.890Z,13.27
2018-01-13T02:07:40.908Z,18.85
2018-01-13T02:10:09.666Z,18.92
2018-01-13T02:12:37.667Z,22.45
2018-01-13T02:15:05.683Z,15.82
2018-01-13T02:17:33.671Z,20.35
2018-01-13T02:20:01.680Z,18.85
2018-01-13T02:22:29.691Z,18.25
2018-01-13T02:24:57.684Z,17.58
2018-01-13T02:27:27.191Z,18.73
2018-01-13T02:29:55.192Z,25.98
2018-01-13T02:32:23.179Z,16.00
2018-01-13T02:34:51.956Z,19.45
2018-01-13T02:37:19.971Z,17.75
2018-01-13T02:39:48.724Z,19.62
2018-01-13T02:42:16.735Z,16.90
2018-01-13T02:44:44.743Z,15.43
2018-01-13T02:47:12.741Z,18.85
2018-01-13T02:49:40.744Z,20.92
2018-01-13T02:52:08.756Z,16.58
2018-01-13T02:54:36.811Z,18.20
2018-01-13T02:57:04.791Z,18.70
2018-01-13T02:59:32.807Z,17.00
2018-01-13T03:02:00.792Z,21.48
2018-01-13T03:04:28.799Z,16.77
2018-01-13T03:06:57.567Z,15.80
2018-01-13T03:09:25.560Z,17.70
2018-01-13T03:11:53.563Z,14.35
2018-01-13T03:14:21.567Z,17.05
2018-01-13T03:16:49.567Z,21.42
2018-01-13T03:19:17.582Z,16.08
2018-01-13T03:21:45.579Z,17.50
2018-01-13T03:24:13.575Z,19.45
2018-01-13T03:26:42.353Z,20.30
2018-01-13T03:29:10.355Z,17.45
2018-01-13T03:31:38.348Z,14.25
2018-01-13T03:34:07.139Z,20.00
2018-01-13T03:36:35.895Z,16.42
2018-01-13T03:39:03.895Z,16.98
2018-01-13T03:41:31.911Z,15.48
2018-01-13T03:44:00.680Z,20.02
2018-01-13T03:46:30.184Z,22.02
2018-01-13T03:48:58.187Z,22.62
2018-01-13T03:51:26.200Z,20.67
2018-01-13T03:53:55.347Z,17.23
2018-01-13T03:56:23.359Z,15.63
2018-01-13T03:58:51.359Z,20.83
2018-01-13T04:01:20.119Z,19.48
2018-01-13T04:03:48.119Z,16.37
2018-01-13T04:06:16.135Z,17.05
2018-01-13T04:08:44.891Z,23.92
2018-01-13T04:11:12.900Z,17.02
2018-01-13T04:13:41.685Z,18.17
2018-01-13T04:16:09.680Z,18.50
2018-01-13T04:18:37.692Z,19.80
2018-01-13T04:21:05.696Z,19.60
2018-01-13T04:23:33.691Z,17.37
2018-01-13T04:26:01.699Z,18.42
2018-01-13T04:28:29.702Z,18.35
2018-01-13T04:30:57.698Z,16.35
2018-01-13T04:33:26.475Z,13.18
2018-01-13T04:35:54.475Z,14.77
2018-01-13T04:38:23.230Z,13.07
2018-01-13T04:40:51.235Z,18.02
2018-01-13T04:43:19.255Z,19.25
2018-01-13T04:45:47.240Z,19.87
2018-01-13T04:48:15.254Z,13.82
2018-01-13T04:50:43.256Z,15.90
2018-01-13T04:53:11.247Z,16.55
2018-01-13T04:55:39.251Z,14.45
2018-01-13T04:58:08.023Z,18.45
2018-01-13T05:00:36.008Z,14.80
2018-01-13T05:03:04.015Z,16.90
2018-01-13T05:05:32.782Z,16.15
2018-01-13T05:08:00.779Z,16.02
2018-01-13T05:10:28.783Z,17.12
2018-01-13T05:12:56.791Z,17.37
2018-01-13T05:15:24.814Z,19.50
2018-01-13T05:17:52.800Z,19.35
2018-01-13T05:20:20.798Z,21.42
2018-01-13T05:22:49.556Z,16.98
2018-01-13T05:25:17.570Z,20.33
2018-01-13T05:27:45.583Z,23.52
2018-01-13T05:30:14.343Z,23.58
2018-01-13T05:32:42.346Z,17.12
2018-01-13T05:35:10.359Z,15.93
2018-01-13T05:37:39.107Z,19.75
2018-01-13T05:40:07.112Z,18.62
2018-01-13T05:42:35.115Z,20.10
2018-01-13T05:45:03.886Z,18.17
2018-01-13T05:47:31.887Z,21.35
2018-01-13T05:49:59.891Z,17.33
2018-01-13T05:52:27.885Z,20.70
2018-01-13T05:54:55.900Z,16.58
2018-01-13T05:57:23.891Z,18.25
2018-01-13T05:59:51.896Z,18.55
2018-01-13T06:02:19.929Z,19.05
2018-01-13T06:04:47.926Z,15.15
2018-01-13T06:07:15.907Z,19.12
2018-01-13T06:09:43.916Z,19.87
2018-01-13T06:12:11.923Z,20.12
2018-01-13T06:14:40.671Z,21.30
2018-01-13T06:17:08.700Z,18.20
2018-01-13T06:19:37.487Z,19.00
2018-01-13T06:22:05.508Z,21.35
2018-01-13T06:24:33.513Z,18.80
2018-01-13T06:27:01.523Z,17.12
2018-01-13T06:29:29.515Z,16.65
2018-01-13T06:31:57.535Z,19.80
2018-01-13T06:34:25.554Z,21.55
2018-01-13T06:36:53.535Z,16.83
2018-01-13T06:39:21.544Z,19.08
2018-01-13T06:41:49.552Z,17.33
2018-01-13T06:44:18.306Z,16.15
2018-01-13T06:46:46.315Z,18.87
2018-01-13T06:49:14.319Z,19.75
2018-01-13T06:51:43.084Z,19.83
2018-01-13T06:54:11.077Z,24.52
2018-01-13T06:56:39.859Z,19.83
2018-01-13T06:59:07.863Z,24.67
2018-01-13T07:01:36.652Z,17.55
2018-01-13T07:04:04.663Z,24.00
2018-01-13T07:06:33.423Z,16.85
2018-01-13T07:09:01.423Z,23.00
2018-01-13T07:11:30.931Z,22.15
2018-01-13T07:13:58.933Z,21.65
2018-01-13T07:16:26.931Z,20.73
2018-01-13T07:18:55.698Z,22.77
2018-01-13T07:21:23.696Z,14.93
2018-01-13T07:23:51.695Z,19.15
2018-01-13T07:26:20.471Z,17.73
2018-01-13T07:28:48.454Z,22.10
2018-01-13T07:31:16.460Z,19.80
2018-01-13T07:33:45.223Z,21.05
2018-01-13T07:36:13.223Z,19.10
2018-01-13T07:38:41.244Z,20.80
2018-01-13T07:41:10.008Z,23.33
2018-01-13T07:43:38.003Z,17.92
2018-01-13T07:46:06.784Z,18.65
2018-01-13T07:48:34.792Z,20.65
2018-01-13T07:51:02.788Z,15.90
2018-01-13T07:53:30.794Z,15.32
2018-01-13T07:55:58.814Z,23.52
2018-01-13T07:58:26.832Z,19.52
2018-01-13T08:00:55.651Z,19.10
2018-01-13T08:03:24.412Z,22.62
2018-01-13T08:05:52.392Z,23.80
2018-01-13T08:08:20.395Z,21.35
2018-01-13T08:10:49.181Z,19.58
2018-01-13T08:13:17.170Z,17.33
2018-01-13T08:15:45.939Z,17.02
2018-01-13T08:18:13.959Z,15.40
2018-01-13T08:20:42.724Z,20.77
2018-01-13T08:23:10.788Z,18.58
2018-01-13T08:25:38.795Z,18.85
2018-01-13T08:28:06.849Z,19.45
2018-01-13T08:30:34.811Z,17.70
2018-01-13T08:33:02.812Z,17.12
2018-01-13T08:35:32.763Z,19.65
2018-01-13T08:38:00.763Z,20.48
2018-01-13T08:40:28.783Z,20.20
2018-01-13T08:42:57.967Z,21.10
2018-01-13T08:45:25.927Z,15.50
2018-01-13T08:47:53.932Z,15.30
2018-01-13T08:50:21.919Z,15.70
2018-01-13T08:52:50.691Z,17.52
2018-01-13T08:55:18.698Z,19.30
2018-01-13T08:57:46.683Z,18.45
2018-01-13T09:00:15.497Z,17.98
2018-01-13T09:02:46.971Z,20.88
2018-01-13T09:05:14.975Z,19.75
2018-01-13T09:07:42.983Z,17.92
2018-01-13T09:10:10.986Z,18.90
2018-01-13T09:12:39.003Z,19.67
2018-01-13T09:15:07.763Z,19.55
2018-01-13T09:17:35.760Z,16.37
2018-01-13T09:20:03.759Z,17.92
2018-01-13T09:22:32.536Z,17.50
2018-01-13T09:25:00.538Z,17.30
2018-01-13T09:27:29.580Z,18.77
2018-01-13T09:29:57.593Z,17.02
2018-01-13T09:32:25.619Z,18.83
2018-01-13T09:34:54.383Z,18.00
2018-01-13T09:37:22.392Z,17.67
2018-01-13T09:39:51.168Z,22.60
2018-01-13T09:42:19.174Z,18.62
2018-01-13T09:44:47.948Z,20.30
2018-01-13T09:47:15.960Z,17.40
2018-01-13T09:49:44.751Z,19.85
2018-01-13T09:52:12.779Z,17.25
2018-01-13T09:54:40.751Z,17.95
2018-01-13T09:57:08.774Z,20.85
2018-01-13T09:59:36.778Z,22.75
2018-01-13T10:02:04.776Z,23.45
2018-01-13T10:04:33.556Z,18.65
2018-01-13T10:07:01.573Z,16.40
2018-01-13T10:09:29.559Z,21.95
2018-01-13T10:11:57.575Z,17.62
2018-01-13T10:14:25.575Z,18.62
2018-01-13T10:16:53.572Z,16.85
2018-01-13T10:19:21.575Z,16.80
2018-01-13T10:21:50.344Z,19.67
2018-01-13T10:24:19.213Z,13.38
2018-01-13T10:26:47.213Z,15.77
2018-01-13T10:29:15.230Z,15.82
2018-01-13T10:31:43.220Z,14.63
2018-01-13T10:34:14.030Z,13.95
2018-01-13T10:36:42.128Z,14.43
2018-01-13T10:39:10.140Z,14.13
2018-01-13T10:41:38.900Z,13.05
2018-01-13T10:44:06.898Z,13.18
2018-01-13T10:46:34.907Z,12.52
2018-01-13T10:49:03.679Z,13.35
2018-01-13T10:51:31.680Z,10.65
2018-01-13T10:54:00.432Z,15.05
2018-01-13T10:56:28.435Z,13.18
2018-01-13T10:58:56.431Z,9.60
2018-01-13T11:01:24.448Z,10.80
2018-01-13T11:03:53.210Z,11.00
2018-01-13T11:06:21.206Z,9.70
2018-01-13T11:08:49.203Z,11.68
2018-01-13T11:11:17.976Z,11.00
2018-01-13T11:13:45.985Z,10.13
2018-01-13T11:16:14.741Z,11.93
2018-01-13T11:18:42.735Z,8.35
2018-01-13T11:21:10.744Z,16.33
2018-01-13T11:23:39.500Z,9.20
2018-01-13T11:26:07.517Z,11.00
2018-01-13T11:28:35.523Z,10.88
2018-01-13T11:31:04.292Z,9.55
2018-01-13T11:33:32.294Z,9.85
2018-01-13T11:36:00.308Z,12.15
2018-01-13T11:38:28.316Z,10.57
2018-01-13T11:40:56.322Z,9.82
2018-01-13T11:43:24.328Z,8.50
2018-01-13T11:45:53.088Z,12.68
2018-01-13T11:48:21.087Z,10.75
2018-01-13T11:50:49.091Z,8.02
2018-01-13T11:53:17.839Z,9.27
2018-01-13T11:55:45.852Z,9.43
2018-01-13T11:58:13.855Z,8.25
2018-01-13T12:00:41.839Z,10.43
2018-01-13T12:03:10.618Z,8.63
2018-01-13T12:05:38.612Z,10.50
2018-01-13T12:08:06.605Z,11.20
2018-01-13T12:10:35.381Z,9.88
2018-01-13T12:13:03.397Z,7.95
2018-01-13T12:15:32.147Z,9.05
2018-01-13T12:18:00.144Z,9.23
2018-01-13T12:20:28.153Z,11.65
2018-01-13T12:22:56.914Z,10.48
2018-01-13T12:25:24.915Z,11.32
2018-01-13T12:27:54.420Z,9.85
2018-01-13T12:30:22.416Z,12.07
2018-01-13T12:32:50.423Z,12.68
2018-01-13T12:35:19.188Z,11.02
2018-01-13T12:37:47.184Z,7.97
2018-01-13T12:40:15.187Z,10.73
2018-01-13T12:42:43.955Z,8.45
2018-01-13T12:45:11.937Z,9.30
2018-01-13T12:47:39.940Z,10.50
2018-01-13T12:50:07.945Z,9.82
2018-01-13T12:52:36.708Z,12.13
2018-01-13T12:55:04.711Z,10.70
2018-01-13T12:57:33.478Z,10.95
2018-01-13T13:00:01.488Z,9.15
2018-01-13T13:02:29.531Z,13.23
2018-01-13T13:04:57.506Z,8.60
2018-01-13T13:07:25.496Z,10.27
2018-01-13T13:09:53.499Z,12.68
2018-01-13T13:12:21.510Z,12.37
2018-01-13T13:14:49.492Z,11.93
2018-01-13T13:17:18.355Z,10.82
2018-01-13T13:19:46.359Z,11.35
2018-01-13T13:22:14.352Z,12.32
2018-01-13T13:24:42.343Z,9.07
2018-01-13T13:27:11.117Z,9.07
2018-01-13T13:29:39.108Z,13.65
2018-01-13T13:32:07.114Z,8.70
2018-01-13T13:34:35.877Z,10.32
2018-01-13T13:37:03.868Z,12.02
2018-01-13T13:39:31.859Z,9.68
2018-01-13T13:42:01.367Z,10.00
2018-01-13T13:44:29.359Z,8.10
2018-01-13T13:46:57.359Z,11.10
2018-01-13T13:49:26.135Z,8.75
2018-01-13T13:51:54.133Z,12.02
2018-01-13T13:54:22.132Z,11.30
2018-01-13T13:56:50.903Z,11.27
2018-01-13T13:59:18.890Z,13.57
2018-01-13T14:01:46.887Z,11.68
2018-01-13T14:04:15.673Z,10.50
2018-01-13T14:06:43.664Z,12.57
2018-01-13T14:09:11.700Z,9.35
2018-01-13T14:11:39.703Z,9.50
2018-01-13T14:14:07.693Z,9.30
2018-01-13T14:16:35.720Z,10.05
2018-01-13T14:19:03.918Z,10.80
2018-01-13T14:21:31.895Z,12.05
2018-01-13T14:23:59.900Z,11.27
2018-01-13T14:26:27.903Z,12.55
2018-01-13T14:28:55.892Z,9.90
2018-01-13T14:31:23.895Z,10.32
2018-01-13T14:33:51.912Z,13.55
2018-01-13T14:36:19.897Z,11.80
2018-01-13T14:38:47.920Z,10.10
2018-01-13T14:41:15.925Z,10.80
2018-01-13T14:43:43.914Z,8.98
2018-01-13T14:46:11.915Z,14.55
2018-01-13T14:48:40.679Z,9.60
2018-01-13T14:51:08.676Z,10.27
2018-01-13T14:53:36.691Z,7.80
2018-01-13T14:56:04.679Z,14.80
2018-01-13T14:58:32.711Z,12.02
2018-01-13T15:01:00.760Z,10.35
2018-01-13T15:03:32.231Z,10.30
2018-01-13T15:06:00.322Z,11.50
2018-01-13T15:08:28.279Z,11.07
2018-01-13T15:10:56.270Z,10.85
2018-01-13T15:13:24.270Z,8.43
2018-01-13T15:15:52.281Z,12.13
2018-01-13T15:18:20.275Z,12.40
2018-01-13T15:20:49.052Z,13.32
2018-01-13T15:23:17.056Z,12.75
2018-01-13T15:25:45.048Z,11.73
2018-01-13T15:28:13.856Z,10.68
2018-01-13T15:30:42.624Z,13.90
2018-01-13T15:33:10.620Z,13.50
2018-01-13T15:35:38.643Z,12.35
2018-01-13T15:38:06.653Z,14.63
2018-01-13T15:40:34.635Z,13.60
2018-01-13T15:43:02.647Z,11.20
2018-01-13T15:45:30.660Z,10.88
2018-01-13T15:47:59.415Z,15.00
2018-01-13T15:50:27.428Z,11.65
2018-01-13T15:52:56.197Z,11.23
2018-01-13T15:55:24.175Z,13.80
2018-01-13T15:57:52.175Z,12.20
2018-01-13T16:00:20.185Z,13.10
2018-01-13T16:02:48.937Z,13.85
2018-01-13T16:05:16.943Z,13.75
2018-01-13T16:07:44.956Z,13.52
2018-01-13T16:10:13.703Z,11.45
2018-01-13T16:12:41.706Z,11.90
2018-01-13T16:15:09.710Z,11.50
2018-01-13T16:17:38.459Z,12.35
2018-01-13T16:20:06.463Z,13.55
2018-01-13T16:22:34.475Z,10.25
2018-01-13T16:25:03.240Z,14.60
2018-01-13T16:27:31.243Z,11.32
2018-01-13T16:29:59.248Z,13.40
2018-01-13T16:32:28.007Z,9.77
2018-01-13T16:34:56.037Z,10.15
2018-01-13T16:37:24.799Z,18.50
2018-01-13T16:39:52.794Z,10.68
2018-01-13T16:42:20.831Z,11.82
2018-01-13T16:44:48.831Z,9.70
2018-01-13T16:47:16.867Z,11.10
2018-01-13T16:49:44.864Z,11.18
2018-01-13T16:52:12.905Z,10.30
2018-01-13T16:54:41.063Z,11.60
2018-01-13T16:57:09.051Z,12.20
2018-01-13T16:59:37.538Z,8.05
2018-01-13T17:02:05.558Z,10.15
2018-01-13T17:04:33.548Z,8.68
2018-01-13T17:07:02.336Z,9.05
2018-01-13T17:09:31.461Z,11.40
2018-01-13T17:11:59.678Z,9.73
2018-01-13T17:14:27.668Z,11.77
2018-01-13T17:16:55.660Z,10.55
2018-01-13T17:19:23.660Z,9.68
2018-01-13T17:21:51.679Z,13.88
2018-01-13T17:24:20.428Z,8.73
2018-01-13T17:26:48.450Z,11.52
2018-01-13T17:29:16.493Z,11.02
2018-01-13T17:31:44.484Z,9.90
2018-01-13T17:34:12.519Z,11.65
2018-01-13T17:36:41.290Z,14.30
2018-01-13T17:39:09.276Z,8.95
2018-01-13T17:41:37.270Z,8.10
2018-01-13T17:44:06.075Z,8.35
2018-01-13T17:46:34.889Z,10.57
2018-01-13T17:49:03.653Z,9.38
2018-01-13T17:51:31.651Z,10.70
2018-01-13T17:54:00.405Z,11.55
2018-01-13T17:56:29.212Z,10.70
2018-01-13T17:58:57.203Z,12.37
2018-01-13T18:01:25.212Z,13.05
2018-01-13T18:03:53.222Z,11.43
2018-01-13T18:06:21.259Z,7.12
2018-01-13T18:08:49.239Z,8.30
2018-01-13T18:11:17.247Z,9.10
2018-01-13T18:13:46.771Z,11.52
2018-01-13T18:16:15.531Z,12.02
2018-01-13T18:18:43.560Z,13.25
2018-01-13T18:21:12.344Z,16.12
2018-01-13T18:23:40.329Z,14.55
2018-01-13T18:26:08.340Z,8.68
2018-01-13T18:28:36.344Z,12.18
2018-01-13T18:31:04.335Z,16.37
2018-01-13T18:33:32.339Z,14.13
2018-01-13T18:36:00.347Z,10.95
2018-01-13T18:38:29.095Z,10.98
2018-01-13T18:40:57.104Z,13.25
2018-01-13T18:43:25.099Z,13.48
2018-01-13T18:45:53.096Z,10.82
2018-01-13T18:48:21.863Z,11.38
2018-01-13T18:50:49.860Z,19.85
2018-01-13T18:53:17.852Z,14.52
2018-01-13T18:55:45.848Z,12.90
2018-01-13T18:58:14.628Z,14.90
2018-01-13T19:00:42.627Z,18.17
2018-01-13T19:03:11.415Z,13.32
2018-01-13T19:05:39.430Z,20.90
2018-01-13T19:08:07.427Z,13.65
2018-01-13T19:10:35.448Z,18.00
2018-01-13T19:13:03.441Z,15.40
2018-01-13T19:15:31.462Z,12.60
2018-01-13T19:18:00.227Z,19.83
2018-01-13T19:20:28.224Z,15.93
2018-01-13T19:22:56.991Z,15.70
2018-01-13T19:25:24.991Z,16.58
2018-01-13T19:27:53.011Z,11.15
2018-01-13T19:30:21.760Z,14.90
2018-01-13T19:32:49.774Z,16.60
2018-01-13T19:35:18.547Z,12.05
2018-01-13T19:37:46.543Z,14.40
2018-01-13T19:40:14.551Z,15.40
2018-01-13T19:42:43.323Z,16.12
2018-01-13T19:45:12.827Z,16.65
2018-01-13T19:47:40.832Z,15.60
2018-01-13T19:50:08.853Z,12.32
2018-01-13T19:52:36.860Z,16.73
2018-01-13T19:55:04.857Z,14.73
2018-01-13T19:57:32.902Z,16.98
2018-01-13T20:00:01.628Z,11.95
2018-01-13T20:02:29.639Z,15.55
2018-01-13T20:04:57.640Z,12.88
2018-01-13T20:07:26.399Z,13.88
2018-01-13T20:09:54.671Z,14.02
2018-01-13T20:12:22.668Z,13.43
2018-01-13T20:14:50.663Z,14.35
2018-01-13T20:17:18.685Z,15.45
2018-01-13T20:19:47.447Z,14.10
2018-01-13T20:22:15.432Z,15.25
2018-01-13T20:24:43.462Z,11.27
2018-01-13T20:27:12.231Z,19.85
2018-01-13T20:29:40.228Z,15.32
2018-01-13T20:32:09.009Z,14.07
2018-01-13T20:34:37.011Z,13.98
2018-01-13T20:37:05.772Z,18.50
2018-01-13T20:39:33.767Z,8.00
2018-01-13T20:42:01.763Z,15.77
2018-01-13T20:44:29.755Z,13.00
2018-01-13T20:46:58.535Z,14.93
2018-01-13T20:49:26.528Z,21.05
2018-01-13T20:51:54.520Z,13.95
2018-01-13T20:54:23.329Z,18.40
2018-01-13T20:56:51.292Z,13.02
2018-01-13T20:59:19.289Z,16.35
2018-01-13T21:01:48.072Z,17.12
2018-01-13T21:04:16.085Z,16.75
2018-01-13T21:06:44.835Z,18.30
2018-01-13T21:09:12.852Z,15.80
2018-01-13T21:11:40.851Z,17.37
2018-01-13T21:14:08.844Z,22.42
2018-01-13T21:16:36.860Z,18.87
2018-01-13T21:19:04.875Z,21.77
2018-01-13T21:21:32.867Z,14.50
2018-01-13T21:24:01.879Z,18.85
2018-01-13T21:26:29.876Z,16.62
2018-01-13T21:28:57.876Z,23.65
2018-01-13T21:31:25.875Z,16.42
2018-01-13T21:33:53.901Z,19.83
2018-01-13T21:36:21.892Z,16.35
2018-01-13T21:38:50.659Z,19.23
2018-01-13T21:41:18.676Z,23.55
2018-01-13T21:43:47.431Z,17.60
2018-01-13T21:46:15.435Z,15.98
2018-01-13T21:48:43.448Z,17.90
2018-01-13T21:51:12.208Z,21.42
2018-01-13T21:53:40.231Z,18.37
2018-01-13T21:56:08.250Z,17.30
2018-01-13T21:58:36.232Z,19.45
2018-01-13T22:01:04.244Z,21.37
2018-01-13T22:03:32.255Z,17.98
2018-01-13T22:06:01.022Z,14.75
2018-01-13T22:08:29.028Z,17.17
2018-01-13T22:10:57.812Z,21.30
2018-01-13T22:13:25.799Z,19.60
2018-01-13T22:15:53.860Z,15.23
2018-01-13T22:18:21.863Z,19.45
2018-01-13T22:20:49.859Z,14.90
2018-01-13T22:23:17.875Z,17.23
2018-01-13T22:25:45.890Z,18.87
2018-01-13T22:28:13.882Z,19.42
2018-01-13T22:30:41.885Z,14.77
2018-01-13T22:33:09.903Z,16.15
2018-01-13T22:35:37.909Z,17.80
2018-01-13T22:38:05.939Z,14.35
2018-01-13T22:40:33.948Z,14.98
2018-01-13T22:43:01.942Z,11.18
2018-01-13T22:45:29.944Z,20.52
2018-01-13T22:47:57.962Z,17.92
2018-01-13T22:50:27.456Z,15.02
2018-01-13T22:52:55.457Z,17.37
2018-01-13T22:55:23.458Z,12.88
2018-01-13T22:57:52.207Z,11.63
2018-01-13T23:00:20.211Z,9.13
2018-01-13T23:02:48.215Z,15.40
2018-01-13T23:05:16.211Z,17.37
2018-01-13T23:07:44.984Z,15.10
2018-01-13T23:10:13.008Z,14.38
2018-01-13T23:12:41.794Z,14.60
2018-01-13T23:15:09.784Z,15.98
2018-01-13T23:17:38.556Z,14.38
2018-01-13T23:20:06.541Z,20.30
2018-01-13T23:22:34.566Z,16.17
2018-01-13T23:25:02.559Z,16.33
2018-01-13T23:27:30.620Z,14.48
2018-01-13T23:29:59.396Z,12.88
2018-01-13T23:32:27.388Z,17.48
2018-01-13T23:34:56.139Z,14.60
2018-01-13T23:37:24.139Z,15.70
2018-01-13T23:39:52.155Z,17.12
2018-01-13T23:42:20.915Z,13.20
2018-01-13T23:44:48.928Z,18.67
2018-01-13T23:47:16.943Z,15.75
2018-01-13T23:49:44.933Z,13.50
2018-01-13T23:52:12.928Z,15.90
2018-01-13T23:54:40.939Z,16.15
2018-01-13T23:57:08.981Z,14.75
2018-01-13T23:59:36.983Z,14.40
